Time;durP1;ratioP1;P1;durP2;ratioP2;P2;SDS_P1;SDS_P2;PMS_P1;PMS_P2;Temp;Humidity;BMP_temperature;BMP_pressure;BME280_temperature;BME280_humidity;BME280_pressure;Samples;Min_cycle;Max_cycle;Signal;HPM_P1;HPM_P2
2021/09/21 00:02:01;;;;;;;7.47;5.70;;;11.80;99.90;;;;;;5093940;28;20477;-57
2021/09/21 00:04:29;;;;;;;8.93;5.80;;;11.80;99.90;;;;;;5094356;28;20441;-57
2021/09/21 00:06:58;;;;;;;12.63;5.80;;;11.90;99.90;;;;;;5092707;28;20486;-56
2021/09/21 00:09:25;;;;;;;7.03;5.40;;;11.90;99.90;;;;;;5093581;28;20869;-56
2021/09/21 00:11:52;;;;;;;8.27;5.90;;;11.90;99.90;;;;;;5093512;28;20830;-56
2021/09/21 00:14:20;;;;;;;6.03;5.00;;;11.90;99.90;;;;;;5093324;28;20848;-56
2021/09/21 00:16:47;;;;;;;6.73;5.30;;;11.90;99.90;;;;;;5092330;28;20527;-55
2021/09/21 00:19:14;;;;;;;6.00;5.00;;;11.90;99.90;;;;;;5092913;28;20449;-56
2021/09/21 00:21:41;;;;;;;7.10;5.53;;;11.90;99.90;;;;;;5093672;28;20817;-56
2021/09/21 00:24:10;;;;;;;5.90;4.77;;;11.90;99.90;;;;;;5093541;28;20499;-56
2021/09/21 00:26:37;;;;;;;6.13;4.63;;;11.90;99.90;;;;;;5093420;28;20485;-56
2021/09/21 00:29:04;;;;;;;6.40;5.40;;;11.90;99.90;;;;;;5092734;28;20458;-56
2021/09/21 00:31:37;;;;;;;8.90;5.60;;;11.80;99.90;;;;;;5092768;28;20450;-55
2021/09/21 00:34:08;;;;;;;9.37;6.20;;;11.70;99.90;;;;;;5092446;28;21338;-56
2021/09/21 00:36:36;;;;;;;7.87;5.90;;;11.70;99.90;;;;;;5091843;28;20530;-56
2021/09/21 00:39:07;;;;;;;8.70;5.50;;;11.70;99.90;;;;;;5092982;28;20530;-56
2021/09/21 00:41:36;;;;;;;11.53;6.10;;;11.70;99.90;;;;;;5073181;28;20549;-56
2021/09/21 00:44:04;;;;;;;7.97;5.53;;;11.70;99.90;;;;;;5080667;28;20446;-56
2021/09/21 00:46:31;;;;;;;11.17;5.73;;;11.60;99.90;;;;;;5093048;28;20482;-57
2021/09/21 00:48:58;;;;;;;6.97;5.13;;;11.60;99.90;;;;;;5093654;28;20589;-56
2021/09/21 00:51:25;;;;;;;6.90;5.20;;;11.60;99.90;;;;;;5092508;28;20453;-56
2021/09/21 00:53:54;;;;;;;7.73;5.40;;;11.60;99.90;;;;;;5093161;28;20446;-56
2021/09/21 00:56:21;;;;;;;9.73;5.90;;;11.60;99.90;;;;;;5093300;28;20442;-57
2021/09/21 00:58:49;;;;;;;8.23;6.20;;;11.50;99.90;;;;;;5093259;28;20544;-56
2021/09/21 01:01:16;;;;;;;7.50;5.70;;;11.30;99.90;;;;;;5092697;28;20446;-56
2021/09/21 01:03:43;;;;;;;8.73;5.87;;;11.10;99.90;;;;;;5092754;28;20533;-56
2021/09/21 01:06:10;;;;;;;9.17;6.20;;;11.10;99.90;;;;;;5093012;28;20521;-56
2021/09/21 01:08:40;;;;;;;8.00;5.80;;;11.20;99.90;;;;;;5092994;28;20506;-56
2021/09/21 01:11:10;;;;;;;10.07;6.20;;;11.20;99.90;;;;;;5091196;28;20475;-56
2021/09/21 01:13:37;;;;;;;7.33;5.57;;;11.20;99.90;;;;;;5072674;28;20447;-56
2021/09/21 01:16:06;;;;;;;7.43;5.23;;;11.20;99.90;;;;;;5072466;28;20906;-56
2021/09/21 01:18:34;;;;;;;8.37;6.30;;;11.30;99.90;;;;;;5089215;28;20442;-57
2021/09/21 01:21:03;;;;;;;8.50;6.30;;;11.40;99.90;;;;;;5090589;28;20883;-56
2021/09/21 01:23:32;;;;;;;8.03;5.63;;;11.40;99.90;;;;;;5092153;28;20534;-56
2021/09/21 01:25:59;;;;;;;7.80;5.40;;;11.40;99.90;;;;;;5092747;28;20588;-56
2021/09/21 01:28:26;;;;;;;8.90;6.20;;;11.40;99.90;;;;;;5092516;28;20465;-56
2021/09/21 01:30:53;;;;;;;6.67;5.60;;;11.30;99.90;;;;;;5092374;28;20454;-56
2021/09/21 01:33:21;;;;;;;8.60;6.23;;;11.40;99.90;;;;;;5092448;28;20454;-56
2021/09/21 01:35:48;;;;;;;8.10;5.80;;;11.40;99.90;;;;;;5092667;28;20446;-56
2021/09/21 01:38:15;;;;;;;9.60;5.30;;;11.40;99.90;;;;;;5092542;28;20469;-56
2021/09/21 01:40:43;;;;;;;6.60;5.23;;;11.40;99.90;;;;;;5092267;28;20473;-56
2021/09/21 01:43:10;;;;;;;7.90;5.50;;;11.50;99.90;;;;;;5092126;28;20511;-56
2021/09/21 01:45:37;;;;;;;7.90;5.80;;;11.40;99.90;;;;;;5091781;28;20499;-56
2021/09/21 01:48:05;;;;;;;8.03;6.10;;;11.50;99.90;;;;;;5091826;28;20481;-55
2021/09/21 01:50:36;;;;;;;8.53;6.23;;;11.40;99.90;;;;;;5091881;28;20453;-56
2021/09/21 01:53:11;;;;;;;8.27;6.00;;;11.30;99.90;;;;;;5091465;28;20450;-56
2021/09/21 02:01:09;;;;;;;6.60;4.87;;;11.30;99.90;;;;;;5091956;28;20958;-57
2021/09/21 02:03:36;;;;;;;6.33;4.20;;;11.30;99.90;;;;;;5091679;28;20446;-58
2021/09/21 02:06:05;;;;;;;5.93;4.70;;;11.30;99.90;;;;;;5092191;28;20486;-57
2021/09/21 02:08:32;;;;;;;7.97;5.27;;;11.30;99.90;;;;;;5091959;28;20951;-57
2021/09/21 02:10:59;;;;;;;5.87;5.13;;;11.40;99.90;;;;;;5091380;28;20537;-57
2021/09/21 02:13:28;;;;;;;7.00;5.30;;;11.40;99.90;;;;;;5091247;28;20450;-57
2021/09/21 02:15:55;;;;;;;8.77;5.70;;;11.40;99.90;;;;;;5091546;28;20446;-57
2021/09/21 02:18:22;;;;;;;7.67;5.33;;;11.40;99.90;;;;;;5091773;28;20466;-57
2021/09/21 02:20:49;;;;;;;7.00;5.37;;;11.40;99.90;;;;;;5091807;28;20495;-57
2021/09/21 02:23:16;;;;;;;8.33;5.63;;;11.30;99.90;;;;;;5091120;28;20955;-58
2021/09/21 02:25:43;;;;;;;8.97;5.90;;;11.40;99.90;;;;;;5090177;28;20453;-57
2021/09/21 02:28:10;;;;;;;7.77;5.30;;;11.30;99.90;;;;;;5091539;28;20470;-57
2021/09/21 02:30:39;;;;;;;8.53;5.37;;;11.30;99.90;;;;;;5091724;28;20449;-57
2021/09/21 02:33:07;;;;;;;9.10;6.43;;;11.40;99.90;;;;;;5091090;28;20454;-57
2021/09/21 02:35:34;;;;;;;8.30;5.53;;;11.30;99.90;;;;;;5091419;28;20454;-57
2021/09/21 02:38:01;;;;;;;7.37;5.60;;;11.30;99.90;;;;;;5091417;28;20473;-57
2021/09/21 02:40:29;;;;;;;7.90;6.37;;;11.20;99.90;;;;;;5091095;28;20866;-57
2021/09/21 02:42:57;;;;;;;7.93;6.20;;;11.30;99.90;;;;;;5091210;28;20454;-57
2021/09/21 02:45:24;;;;;;;8.30;6.20;;;11.20;99.90;;;;;;5091559;28;20532;-57
2021/09/21 02:47:53;;;;;;;9.47;6.63;;;11.20;99.90;;;;;;5091314;28;20500;-57
2021/09/21 02:50:22;;;;;;;9.50;5.93;;;11.20;99.90;;;;;;5091017;28;21005;-58
2021/09/21 02:52:49;;;;;;;10.50;5.80;;;11.20;99.90;;;;;;5090926;28;20460;-57
2021/09/21 02:55:16;;;;;;;7.50;5.60;;;11.30;99.90;;;;;;5091377;28;20457;-57
2021/09/21 02:57:43;;;;;;;8.63;5.50;;;11.40;99.90;;;;;;5091128;28;20473;-58
2021/09/21 03:00:13;;;;;;;9.40;6.30;;;11.50;99.90;;;;;;5093537;28;20446;-57
2021/09/21 03:02:42;;;;;;;7.80;5.70;;;11.60;99.90;;;;;;5095601;28;20454;-58
2021/09/21 03:05:14;;;;;;;7.40;5.70;;;11.70;99.90;;;;;;5095228;28;20445;-58
2021/09/21 03:07:44;;;;;;;7.93;6.00;;;11.80;99.90;;;;;;5095236;28;20521;-58
2021/09/21 03:10:20;;;;;;;10.17;6.50;;;11.80;99.90;;;;;;5094228;28;20537;-58
2021/09/21 03:13:16;;;;;;;7.70;5.83;;;11.80;99.90;;;;;;5094737;28;20473;-57
2021/09/21 03:18:28;;;;;;;6.60;5.30;;;11.60;99.90;;;;;;5094468;28;20972;-57
2021/09/21 03:20:57;;;;;;;9.57;6.10;;;11.70;99.90;;;;;;5094038;28;20450;-58
2021/09/21 03:23:24;;;;;;;7.70;5.63;;;11.70;99.90;;;;;;5094768;28;20449;-58
2021/09/21 03:25:51;;;;;;;6.30;4.87;;;11.80;99.90;;;;;;5094943;28;20874;-58
2021/09/21 03:28:18;;;;;;;8.43;5.40;;;11.90;99.90;;;;;;5094103;28;20538;-58
2021/09/21 03:30:45;;;;;;;7.33;5.63;;;12.00;99.90;;;;;;5094295;28;20950;-58
2021/09/21 03:33:13;;;;;;;7.47;5.60;;;12.00;99.90;;;;;;5094051;28;20880;-58
2021/09/21 03:35:40;;;;;;;8.20;5.10;;;12.10;99.90;;;;;;5094882;28;20808;-57
2021/09/21 03:38:08;;;;;;;7.23;5.50;;;12.10;99.90;;;;;;5094551;28;20469;-58
2021/09/21 03:40:36;;;;;;;6.63;4.93;;;12.10;99.90;;;;;;5094206;28;21105;-58
2021/09/21 03:43:03;;;;;;;6.43;5.10;;;12.10;99.90;;;;;;5085183;28;20461;-57
2021/09/21 03:45:30;;;;;;;8.27;5.40;;;12.10;99.90;;;;;;5094363;28;20450;-58
2021/09/21 03:47:57;;;;;;;7.90;5.50;;;12.00;99.90;;;;;;5093966;28;21003;-58
2021/09/21 03:50:24;;;;;;;8.30;5.87;;;12.10;99.90;;;;;;5094297;28;20582;-58
2021/09/21 03:52:51;;;;;;;6.57;5.00;;;12.20;99.90;;;;;;5093971;28;20476;-57
2021/09/21 03:55:24;;;;;;;6.70;4.80;;;12.20;99.90;;;;;;5094051;28;20446;-58
2021/09/21 03:57:51;;;;;;;6.03;4.63;;;12.10;99.90;;;;;;5077774;28;20885;-58
2021/09/21 04:00:22;;;;;;;7.10;4.57;;;12.20;99.90;;;;;;5093978;28;20446;-58
2021/09/21 04:02:50;;;;;;;7.50;4.83;;;12.20;99.90;;;;;;5094074;28;20450;-58
2021/09/21 04:05:17;;;;;;;6.53;4.93;;;12.20;99.90;;;;;;5093983;28;20453;-58
2021/09/21 04:07:44;;;;;;;5.70;4.60;;;12.20;99.90;;;;;;5094005;28;20484;-58
2021/09/21 04:10:11;;;;;;;7.00;4.73;;;12.10;99.90;;;;;;5093933;28;20862;-57
2021/09/21 04:12:40;;;;;;;6.10;4.80;;;12.10;99.90;;;;;;5081870;28;20451;-57
2021/09/21 04:15:09;;;;;;;6.80;4.47;;;11.90;99.90;;;;;;5092984;28;20450;-57
2021/09/21 04:17:36;;;;;;;6.47;4.50;;;11.90;99.90;;;;;;5093380;28;20473;-57
2021/09/21 04:20:03;;;;;;;6.80;4.50;;;11.90;99.90;;;;;;5093618;28;20538;-57
2021/09/21 04:22:30;;;;;;;6.37;4.50;;;11.90;99.90;;;;;;5093897;28;20499;-57
2021/09/21 04:24:57;;;;;;;7.27;5.43;;;11.90;99.90;;;;;;5093962;28;20441;-57
2021/09/21 04:27:25;;;;;;;7.33;4.57;;;11.80;99.90;;;;;;5092846;28;20478;-57
2021/09/21 04:29:59;;;;;;;7.63;5.40;;;11.70;99.90;;;;;;5093443;28;20854;-57
2021/09/21 04:32:26;;;;;;;5.67;4.37;;;11.70;99.90;;;;;;5093163;28;20449;-58
2021/09/21 04:34:54;;;;;;;8.20;5.33;;;11.70;99.90;;;;;;5093702;28;20454;-57
2021/09/21 04:37:22;;;;;;;12.03;5.73;;;11.70;99.90;;;;;;5093743;28;20462;-57
2021/09/21 04:39:49;;;;;;;6.67;4.90;;;11.60;99.90;;;;;;5093427;28;20959;-57
2021/09/21 04:42:18;;;;;;;7.93;5.20;;;11.60;99.90;;;;;;5092669;28;20446;-58
2021/09/21 04:44:45;;;;;;;8.40;5.40;;;11.60;99.90;;;;;;5092771;28;20523;-57
2021/09/21 04:47:13;;;;;;;8.23;5.90;;;11.60;99.90;;;;;;5092424;28;20842;-57
2021/09/21 04:49:40;;;;;;;9.13;5.23;;;11.50;99.90;;;;;;5076630;28;20447;-57
2021/09/21 04:52:07;;;;;;;12.27;6.37;;;11.60;99.90;;;;;;5072923;28;20876;-57
2021/09/21 04:54:35;;;;;;;9.37;6.93;;;11.60;99.90;;;;;;5085652;28;20482;-58
2021/09/21 04:57:01;;;;;;;9.80;6.53;;;11.50;99.90;;;;;;5093035;28;20465;-58
2021/09/21 04:59:28;;;;;;;8.40;6.40;;;11.60;99.90;;;;;;5092801;28;20495;-58
2021/09/21 05:01:55;;;;;;;9.30;7.00;;;11.40;99.90;;;;;;5091678;28;20495;-58
2021/09/21 05:04:24;;;;;;;13.10;8.13;;;11.30;99.90;;;;;;5081691;28;20859;-58
2021/09/21 05:06:51;;;;;;;10.20;6.50;;;11.30;99.90;;;;;;5092601;28;20481;-58
2021/09/21 05:09:18;;;;;;;10.47;6.47;;;11.30;99.90;;;;;;5090516;28;20826;-58
2021/09/21 05:11:45;;;;;;;7.90;6.07;;;11.40;99.90;;;;;;5092610;28;20458;-58
2021/09/21 05:14:13;;;;;;;10.90;6.70;;;11.40;99.90;;;;;;5091947;28;20529;-58
2021/09/21 05:16:40;;;;;;;14.50;7.90;;;11.30;99.90;;;;;;5091656;28;21013;-58
2021/09/21 05:19:07;;;;;;;10.60;7.37;;;11.30;99.90;;;;;;5091965;28;20503;-57
2021/09/21 05:21:36;;;;;;;12.93;8.53;;;11.30;99.90;;;;;;5092469;28;20831;-58
2021/09/21 05:24:04;;;;;;;14.43;9.10;;;11.30;99.90;;;;;;5092573;28;20458;-57
2021/09/21 05:26:31;;;;;;;13.83;8.30;;;11.20;99.90;;;;;;5082266;28;20475;-58
2021/09/21 05:28:58;;;;;;;12.43;8.83;;;11.30;99.90;;;;;;5091424;28;20477;-58
2021/09/21 05:31:25;;;;;;;15.43;8.33;;;11.30;99.90;;;;;;5091700;28;20450;-58
2021/09/21 05:33:52;;;;;;;17.33;9.50;;;11.40;99.90;;;;;;5092412;28;20445;-57
2021/09/21 05:36:19;;;;;;;12.40;9.60;;;11.50;99.90;;;;;;5092601;28;20457;-57
2021/09/21 05:38:47;;;;;;;12.23;9.67;;;11.50;99.90;;;;;;5091930;28;20503;-58
2021/09/21 05:41:14;;;;;;;23.63;9.17;;;11.40;99.90;;;;;;5092287;28;20804;-58
2021/09/21 05:43:41;;;;;;;14.07;10.07;;;11.40;99.90;;;;;;5092002;28;20939;-58
2021/09/21 05:46:08;;;;;;;14.30;9.27;;;11.30;99.90;;;;;;5092133;28;21108;-58
2021/09/21 05:48:35;;;;;;;12.60;9.17;;;11.40;99.90;;;;;;5092186;28;20474;-58
2021/09/21 05:51:02;;;;;;;13.03;8.97;;;11.50;99.90;;;;;;5092253;28;20446;-58
2021/09/21 05:53:29;;;;;;;11.30;8.40;;;11.50;99.90;;;;;;5091233;28;20883;-58
2021/09/21 05:55:58;;;;;;;12.50;8.30;;;11.60;99.90;;;;;;5092169;28;20445;-57
2021/09/21 05:58:25;;;;;;;10.90;8.47;;;11.70;99.90;;;;;;5092034;28;20991;-58
2021/09/21 06:00:52;;;;;;;18.50;9.00;;;11.80;99.90;;;;;;5091967;28;20497;-58
2021/09/21 06:03:19;;;;;;;12.00;8.80;;;11.80;99.90;;;;;;5091954;28;20489;-58
2021/09/21 06:05:48;;;;;;;13.63;8.10;;;11.90;99.90;;;;;;5086966;28;20612;-58
2021/09/21 06:08:15;;;;;;;13.97;9.30;;;12.00;99.90;;;;;;5084227;28;20980;-58
2021/09/21 06:10:42;;;;;;;12.23;8.20;;;12.50;99.90;;;;;;5085350;28;20493;-59
2021/09/21 06:13:11;;;;;;;11.90;7.60;;;13.20;99.90;;;;;;5087199;28;20457;-59
2021/09/21 06:15:38;;;;;;;13.83;9.07;;;14.00;99.90;;;;;;5088375;28;20465;-59
2021/09/21 06:18:05;;;;;;;10.50;7.20;;;14.60;99.90;;;;;;5087459;28;20473;-57
2021/09/21 06:20:33;;;;;;;8.40;6.60;;;15.30;99.90;;;;;;5087208;28;20470;-59
2021/09/21 06:23:00;;;;;;;9.37;7.00;;;15.80;99.90;;;;;;5085784;28;20458;-59
2021/09/21 06:25:27;;;;;;;8.50;6.47;;;16.20;99.90;;;;;;5083817;28;21042;-58
2021/09/21 06:27:54;;;;;;;9.17;6.97;;;16.30;99.90;;;;;;5083170;28;20990;-58
2021/09/21 06:30:23;;;;;;;8.80;7.20;;;16.10;99.90;;;;;;5086629;28;20461;-59
2021/09/21 06:32:51;;;;;;;10.77;6.60;;;16.00;99.90;;;;;;5089768;28;20450;-59
2021/09/21 06:35:18;;;;;;;9.33;6.90;;;15.80;99.90;;;;;;5069752;28;20496;-58
2021/09/21 06:37:47;;;;;;;11.60;7.20;;;15.70;99.90;;;;;;5091493;28;20466;-57
2021/09/21 06:40:15;;;;;;;11.37;7.80;;;15.30;99.90;;;;;;5090692;28;20442;-58
2021/09/21 06:42:42;;;;;;;10.87;7.23;;;15.00;99.90;;;;;;5089124;28;20441;-58
2021/09/21 06:45:13;;;;;;;8.70;7.30;;;14.90;99.90;;;;;;5096024;28;20795;-58
2021/09/21 06:47:44;;;;;;;9.53;7.40;;;14.80;99.90;;;;;;5093154;28;20911;-58
2021/09/21 06:50:14;;;;;;;10.43;7.50;;;14.60;99.90;;;;;;5090147;28;20461;-58
2021/09/21 06:52:42;;;;;;;10.50;7.90;;;14.70;99.90;;;;;;5093914;28;20511;-58
2021/09/21 06:55:10;;;;;;;9.40;7.40;;;14.70;99.90;;;;;;5088560;28;20439;-58
2021/09/21 06:57:38;;;;;;;8.13;6.60;;;14.60;99.90;;;;;;5079452;28;20463;-58
2021/09/21 07:00:09;;;;;;;8.37;6.90;;;14.70;99.90;;;;;;5077317;28;20446;-57
2021/09/21 07:02:37;;;;;;;8.93;6.60;;;14.60;99.90;;;;;;5095243;28;20514;-58
2021/09/21 07:05:06;;;;;;;11.80;7.80;;;14.70;99.90;;;;;;5090466;28;20470;-58
2021/09/21 07:07:33;;;;;;;14.07;8.37;;;14.70;99.90;;;;;;5074722;28;20560;-58
2021/09/21 07:10:00;;;;;;;9.20;6.13;;;14.70;99.90;;;;;;5084808;28;20515;-59
2021/09/21 07:12:27;;;;;;;11.43;6.60;;;14.90;99.90;;;;;;5095027;28;20454;-58
2021/09/21 07:14:55;;;;;;;7.77;6.63;;;15.00;99.90;;;;;;5092191;28;20529;-58
2021/09/21 07:17:22;;;;;;;11.43;6.80;;;15.00;99.90;;;;;;5085333;28;20467;-58
2021/09/21 07:19:49;;;;;;;8.03;6.13;;;15.10;99.90;;;;;;5078673;28;20502;-58
2021/09/21 07:22:17;;;;;;;9.90;6.70;;;15.20;99.90;;;;;;5089801;28;20446;-58
2021/09/21 07:24:44;;;;;;;7.60;6.00;;;15.30;99.90;;;;;;5089362;28;21014;-59
2021/09/21 07:27:11;;;;;;;7.80;5.93;;;15.40;99.90;;;;;;5088303;28;20493;-58
2021/09/21 07:29:38;;;;;;;10.67;7.40;;;15.50;99.90;;;;;;5089152;28;20478;-59
2021/09/21 07:32:06;;;;;;;11.67;7.17;;;15.60;99.90;;;;;;5090008;28;20462;-59
2021/09/21 07:34:33;;;;;;;12.30;7.20;;;15.70;99.90;;;;;;5093735;28;20466;-59
2021/09/21 07:37:00;;;;;;;9.70;6.90;;;15.70;99.90;;;;;;5091392;28;20477;-58
2021/09/21 07:39:28;;;;;;;7.53;6.00;;;15.90;99.90;;;;;;5087256;28;20459;-59
2021/09/21 07:41:55;;;;;;;11.53;7.10;;;16.30;99.90;;;;;;5091227;28;20465;-59
2021/09/21 07:44:23;;;;;;;9.90;7.07;;;16.30;99.90;;;;;;5092976;28;20462;-59
2021/09/21 07:46:51;;;;;;;9.80;6.73;;;16.40;99.90;;;;;;5077634;28;20494;-59
2021/09/21 07:49:18;;;;;;;9.73;7.07;;;16.00;99.90;;;;;;5087697;28;20481;-59
2021/09/21 07:51:45;;;;;;;9.73;6.73;;;16.00;99.90;;;;;;5093200;28;20461;-60
2021/09/21 07:54:12;;;;;;;10.40;6.97;;;16.30;99.90;;;;;;5085615;28;20922;-59
2021/09/21 07:56:41;;;;;;;11.20;6.57;;;16.60;99.90;;;;;;5090571;28;20603;-60
2021/09/21 07:59:08;;;;;;;9.37;6.57;;;17.10;99.90;;;;;;5085271;28;20951;-59
2021/09/21 08:01:36;;;;;;;9.37;6.43;;;17.80;99.90;;;;;;5090540;28;20462;-59
2021/09/21 08:04:03;;;;;;;8.40;6.10;;;18.40;99.90;;;;;;5093708;28;20466;-59
2021/09/21 08:06:30;;;;;;;8.50;6.53;;;19.00;99.90;;;;;;5090362;28;20481;-60
2021/09/21 08:08:57;;;;;;;8.90;6.50;;;19.60;99.90;;;;;;5085891;28;20527;-59
2021/09/21 08:11:26;;;;;;;8.67;6.53;;;19.60;99.90;;;;;;5087883;28;20474;-59
2021/09/21 08:13:55;;;;;;;9.07;7.07;;;20.40;99.90;;;;;;5086038;28;21138;-60
2021/09/21 08:16:22;;;;;;;9.47;6.67;;;21.00;99.90;;;;;;5086208;28;20955;-60
2021/09/21 08:18:50;;;;;;;10.00;6.97;;;21.20;99.90;;;;;;5086586;28;20541;-60
2021/09/21 08:21:18;;;;;;;9.93;6.40;;;21.50;99.90;;;;;;5086772;28;20507;-59
2021/09/21 08:23:45;;;;;;;11.13;6.27;;;21.60;99.90;;;;;;5088019;28;20547;-60
2021/09/21 08:26:11;;;;;;;8.30;6.50;;;21.60;99.90;;;;;;5086691;28;20465;-60
2021/09/21 08:28:39;;;;;;;10.93;7.77;;;21.50;99.90;;;;;;5090383;28;20978;-60
2021/09/21 08:31:07;;;;;;;9.77;7.67;;;20.80;99.90;;;;;;5090266;28;21044;-60
2021/09/21 08:33:34;;;;;;;8.30;6.60;;;20.50;99.90;;;;;;5088424;28;20462;-62
2021/09/21 08:36:01;;;;;;;9.00;7.20;;;20.60;99.90;;;;;;5086896;28;20465;-60
2021/09/21 08:38:28;;;;;;;9.90;7.37;;;21.40;99.90;;;;;;5086461;28;20504;-62
2021/09/21 08:40:55;;;;;;;10.73;8.00;;;21.20;99.90;;;;;;5086716;28;20522;-60
2021/09/21 08:43:22;;;;;;;9.93;7.67;;;21.80;99.90;;;;;;5087603;28;20503;-61
2021/09/21 08:45:50;;;;;;;9.27;7.67;;;21.80;99.90;;;;;;5086272;28;20511;-60
2021/09/21 08:48:18;;;;;;;9.37;7.37;;;22.20;99.90;;;;;;5085778;28;20481;-60
2021/09/21 08:50:45;;;;;;;9.10;6.77;;;22.40;99.90;;;;;;5084366;28;20510;-62
2021/09/21 08:53:12;;;;;;;9.13;7.30;;;22.60;99.90;;;;;;5089225;28;21251;-60
2021/09/21 08:55:39;;;;;;;9.00;6.80;;;22.70;99.90;;;;;;5088548;28;20543;-60
2021/09/21 08:58:07;;;;;;;8.37;6.77;;;23.10;99.90;;;;;;5085511;28;20470;-63
2021/09/21 09:00:35;;;;;;;8.80;6.00;;;23.30;99.90;;;;;;5085489;28;20873;-61
2021/09/21 09:03:07;;;;;;;7.80;6.53;;;23.60;99.90;;;;;;5086893;28;20465;-60
2021/09/21 09:05:46;;;;;;;8.87;7.53;;;23.60;99.90;;;;;;5084982;28;20511;-60
2021/09/21 09:08:14;;;;;;;7.70;6.10;;;23.70;99.90;;;;;;5089430;28;20489;-60
2021/09/21 09:10:41;;;;;;;7.90;6.13;;;23.70;99.90;;;;;;5091534;28;20450;-60
2021/09/21 09:13:18;;;;;;;7.67;6.37;;;23.90;99.90;;;;;;5091335;28;20457;-59
2021/09/21 09:15:54;;;;;;;8.57;6.10;;;23.90;99.90;;;;;;5087637;28;20536;-60
2021/09/21 09:18:26;;;;;;;8.10;6.07;;;24.10;99.90;;;;;;5086377;28;20477;-60
2021/09/21 09:20:54;;;;;;;6.70;6.00;;;24.30;99.90;;;;;;5088199;28;20465;-59
2021/09/21 09:23:22;;;;;;;7.10;6.07;;;24.40;99.90;;;;;;5076396;28;20522;-60
2021/09/21 09:25:50;;;;;;;8.80;6.80;;;24.50;99.90;;;;;;5071337;28;20469;-60
2021/09/21 09:28:19;;;;;;;7.27;6.47;;;24.50;99.90;;;;;;5077430;28;20485;-61
2021/09/21 09:30:47;;;;;;;6.60;5.60;;;24.40;99.90;;;;;;5078939;28;21044;-59
2021/09/21 09:33:15;;;;;;;8.63;7.00;;;24.40;99.90;;;;;;5081252;28;20461;-60
2021/09/21 09:35:44;;;;;;;6.00;5.00;;;23.70;99.90;;;;;;5086479;28;20461;-59
2021/09/21 09:38:14;;;;;;;6.20;5.30;;;22.80;99.90;;;;;;5090873;28;20517;-60
2021/09/21 09:40:45;;;;;;;4.80;4.30;;;22.30;99.90;;;;;;5093245;28;20454;-60
2021/09/21 09:43:12;;;;;;;6.00;5.00;;;23.00;99.90;;;;;;5083638;28;20445;-59
2021/09/21 09:45:41;;;;;;;4.90;4.40;;;23.50;99.90;;;;;;5089891;28;20465;-59
2021/09/21 09:48:11;;;;;;;5.00;4.00;;;23.30;99.90;;;;;;5087297;28;20566;-59
2021/09/21 09:50:42;;;;;;;5.30;4.20;;;23.40;99.90;;;;;;5091848;28;20939;-59
2021/09/21 09:53:14;;;;;;;5.00;3.83;;;22.00;99.90;;;;;;5089912;28;21013;-59
2021/09/21 09:55:44;;;;;;;4.10;3.70;;;21.20;99.90;;;;;;5091471;28;20499;-60
2021/09/21 09:58:12;;;;;;;3.70;3.40;;;21.60;99.90;;;;;;5090885;28;20902;-59
2021/09/21 10:00:39;;;;;;;4.67;3.60;;;22.10;99.90;;;;;;5088633;28;20484;-59
2021/09/21 10:03:07;;;;;;;5.40;3.53;;;21.20;99.90;;;;;;5090580;28;20461;-59
2021/09/21 10:05:36;;;;;;;4.32;3.80;;;20.50;99.90;;;;;;5084857;28;20444;-59
2021/09/21 10:08:03;;;;;;;5.60;4.80;;;21.10;99.90;;;;;;5088737;28;20220;-59
2021/09/21 10:10:31;;;;;;;5.57;5.00;;;21.60;99.90;;;;;;5082986;28;20494;-60
2021/09/21 10:13:02;;;;;;;8.57;6.00;;;21.40;99.90;;;;;;5087546;28;20466;-61
2021/09/21 10:15:30;;;;;;;7.53;5.93;;;20.60;99.90;;;;;;5084334;28;20516;-60
2021/09/21 10:17:58;;;;;;;7.50;6.20;;;20.40;99.90;;;;;;5090176;28;20494;-59
2021/09/21 10:20:32;;;;;;;6.80;5.97;;;21.00;99.90;;;;;;5089625;28;20450;-60
2021/09/21 10:23:00;;;;;;;7.57;5.80;;;21.40;99.90;;;;;;5087417;28;20966;-58
2021/09/21 10:25:35;;;;;;;10.17;7.40;;;21.30;99.90;;;;;;5090558;28;20450;-59
2021/09/21 10:28:12;;;;;;;8.70;5.80;;;20.20;99.90;;;;;;5090676;28;20469;-60
2021/09/21 10:30:39;;;;;;;11.50;7.47;;;20.10;99.90;;;;;;5091155;28;20477;-58
2021/09/21 10:33:16;;;;;;;8.60;6.40;;;20.00;99.90;;;;;;5090596;28;20450;-59
2021/09/21 10:35:49;;;;;;;10.00;6.80;;;19.40;99.90;;;;;;5090495;28;20926;-59
2021/09/21 10:38:17;;;;;;;10.40;7.67;;;19.40;99.90;;;;;;5093109;28;20553;-59
2021/09/21 10:40:46;;;;;;;10.27;7.03;;;18.80;99.90;;;;;;5090858;28;21005;-60
2021/09/21 10:43:26;;;;;;;8.30;6.27;;;19.00;99.90;;;;;;5091606;28;20475;-59
2021/09/21 10:46:07;;;;;;;9.50;6.80;;;19.20;99.90;;;;;;5091192;28;20503;-61
2021/09/21 10:48:36;;;;;;;8.83;7.20;;;19.30;99.90;;;;;;5071170;28;20442;-59
2021/09/21 10:51:05;;;;;;;10.37;7.70;;;19.30;99.90;;;;;;5082907;28;20448;-59
2021/09/21 10:53:32;;;;;;;10.90;7.70;;;18.60;99.90;;;;;;5091411;28;20556;-59
2021/09/21 10:56:01;;;;;;;11.17;8.20;;;18.40;99.90;;;;;;5091051;28;20445;-60
2021/09/21 10:58:29;;;;;;;13.63;7.70;;;18.60;99.90;;;;;;5090723;28;20503;-59
2021/09/21 11:00:57;;;;;;;9.83;7.50;;;18.60;99.90;;;;;;5090946;28;20446;-59
2021/09/21 11:03:26;;;;;;;9.33;7.13;;;18.30;99.90;;;;;;5090822;28;20499;-59
2021/09/21 11:05:55;;;;;;;8.63;6.77;;;18.20;99.90;;;;;;5091023;28;20537;-60
2021/09/21 11:08:29;;;;;;;10.17;7.60;;;18.60;99.90;;;;;;5090491;28;20546;-59
2021/09/21 11:10:59;;;;;;;6.40;4.40;;;18.60;99.90;;;;;;5090910;28;20477;-59
2021/09/21 11:13:32;;;;;;;6.20;5.10;;;18.50;99.90;;;;;;5091457;28;20446;-59
2021/09/21 11:16:00;;;;;;;6.57;5.10;;;18.40;99.90;;;;;;5091021;28;20476;-59
2021/09/21 11:18:28;;;;;;;5.27;4.43;;;18.70;99.90;;;;;;5090180;28;21010;-59
2021/09/21 11:20:56;;;;;;;10.43;6.40;;;18.70;99.90;;;;;;5092068;28;20478;-59
2021/09/21 11:23:26;;;;;;;9.97;6.83;;;18.90;99.90;;;;;;5095150;28;20453;-59
2021/09/21 11:25:55;;;;;;;9.10;6.50;;;19.00;99.90;;;;;;5094697;28;20450;-60
2021/09/21 11:28:22;;;;;;;8.60;6.47;;;19.10;99.90;;;;;;5094346;28;20462;-59
2021/09/21 11:30:51;;;;;;;9.10;6.40;;;19.00;99.90;;;;;;5093939;28;20473;-58
2021/09/21 11:33:20;;;;;;;8.70;6.17;;;18.90;99.90;;;;;;5094423;28;20441;-59
2021/09/21 11:35:48;;;;;;;11.30;6.33;;;18.80;99.90;;;;;;5094314;28;20457;-58
2021/09/21 11:38:16;;;;;;;6.57;5.40;;;18.90;99.90;;;;;;5094019;28;20524;-59
2021/09/21 11:40:44;;;;;;;8.30;6.10;;;19.30;99.90;;;;;;5093563;28;20450;-58
2021/09/21 11:43:11;;;;;;;8.00;6.00;;;19.20;99.90;;;;;;5074479;28;20805;-59
2021/09/21 11:45:39;;;;;;;7.73;5.70;;;19.00;99.90;;;;;;5075313;28;20451;-59
2021/09/21 11:48:09;;;;;;;7.70;5.75;;;18.80;99.90;;;;;;5087577;28;20491;-59
2021/09/21 11:50:37;;;;;;;7.93;6.07;;;18.80;99.90;;;;;;5093639;28;20277;-59
2021/09/21 11:53:07;;;;;;;9.10;6.27;;;19.00;99.90;;;;;;5094210;28;20448;-59
2021/09/21 11:55:36;;;;;;;6.97;5.13;;;18.70;99.90;;;;;;5094360;28;20453;-59
2021/09/21 11:58:04;;;;;;;7.60;5.30;;;18.30;99.90;;;;;;5094009;28;20495;-59
2021/09/21 12:00:33;;;;;;;7.40;5.70;;;18.30;99.90;;;;;;5094087;28;20446;-59
2021/09/21 12:03:03;;;;;;;6.77;5.40;;;18.20;99.90;;;;;;5090512;28;20504;-59
2021/09/21 12:05:33;;;;;;;9.03;5.80;;;18.40;99.90;;;;;;5088188;28;21224;-59
2021/09/21 12:08:04;;;;;;;6.17;4.80;;;18.60;99.90;;;;;;5093738;28;20975;-60
2021/09/21 12:10:32;;;;;;;6.77;4.90;;;18.70;99.90;;;;;;5073665;28;20492;-59
2021/09/21 12:13:10;;;;;;;9.17;4.93;;;18.60;99.90;;;;;;5077388;28;20449;-59
2021/09/21 12:15:39;;;;;;;6.17;4.77;;;18.80;99.90;;;;;;5092143;28;20506;-59
2021/09/21 12:18:08;;;;;;;7.47;5.57;;;18.90;99.90;;;;;;5093682;28;20465;-59
2021/09/21 12:20:36;;;;;;;9.53;5.03;;;18.80;99.90;;;;;;5093609;28;20887;-60
2021/09/21 12:23:06;;;;;;;7.23;5.00;;;18.90;99.90;;;;;;5093808;28;20943;-60
2021/09/21 12:25:35;;;;;;;8.23;5.50;;;18.60;99.90;;;;;;5093714;28;20530;-60
2021/09/21 12:28:04;;;;;;;7.57;4.73;;;18.70;99.90;;;;;;5093421;28;20466;-58
2021/09/21 12:30:33;;;;;;;5.00;4.40;;;18.60;99.90;;;;;;5093097;28;21063;-60
2021/09/21 12:33:02;;;;;;;6.67;5.60;;;18.70;99.90;;;;;;5092529;28;20503;-59
2021/09/21 12:35:31;;;;;;;7.50;5.17;;;18.70;99.90;;;;;;5093651;28;20450;-60
2021/09/21 12:38:11;;;;;;;7.03;5.20;;;18.70;99.90;;;;;;5093407;28;21036;-60
2021/09/21 12:40:50;;;;;;;6.60;5.10;;;18.70;99.90;;;;;;5093288;28;21000;-59
2021/09/21 12:43:20;;;;;;;6.47;5.00;;;18.70;99.90;;;;;;5093087;28;20450;-59
2021/09/21 12:45:47;;;;;;;6.40;5.30;;;18.80;99.90;;;;;;5093328;28;20482;-59
2021/09/21 12:48:14;;;;;;;5.63;4.47;;;19.00;99.90;;;;;;5093157;28;20987;-60
2021/09/21 12:50:42;;;;;;;6.43;5.10;;;18.90;99.90;;;;;;5092783;28;20891;-60
2021/09/21 12:53:20;;;;;;;7.17;5.37;;;18.80;99.90;;;;;;5093228;28;20870;-60
2021/09/21 12:55:54;;;;;;;7.20;5.43;;;18.60;99.90;;;;;;5092875;28;20460;-59
2021/09/21 12:58:23;;;;;;;7.13;5.57;;;18.70;99.90;;;;;;5093060;28;20477;-60
2021/09/21 13:00:51;;;;;;;6.27;5.07;;;18.60;99.90;;;;;;5093038;28;20817;-60